METAR Data
IDs: Format: Raw Decoded Include TAF

Data at: 2046 UTC 01 Dec 2021

KLVN 012035Z AUTO 21004KT 10SM CLR 10/03 A2962 RMK AO2